VOE7YM LEVC-LEBB
Flight info
| Callsign | VOE7YM |
|---|---|
| Flight time | 0h 58m |
| Altitude | 34000 |
| Route | CENTA N733 BENED DCT CJN DCT RBO N867 DGO |
| Aircraft | A320/M-SDFGHIJ1RWY/LB1 |
Departure
| Time | 2026-05-08 15:39 |
|---|---|
| Airport | Valencia Airport (LEVC) |
Arrival
| Time | 2026-05-08 16:38 |
|---|---|
| Airport | Bilbao Airport (LEBB) |
| Time | Latitude | Longitude | Altitude | Speed | Heading |
|---|---|---|---|---|---|
| 2026-05-08 15:24 | 39.48993 | -0.47170 | 188 ft | 0 kts | 14° |
| 2026-05-08 15:28 | 39.48989 | -0.47172 | 199 ft | 3 kts | 15° |
| 2026-05-08 15:29 | 39.48963 | -0.47178 | 195 ft | 4 kts | 2° |
| 2026-05-08 15:29 | 39.48937 | -0.47176 | 197 ft | 4 kts | 343° |
| 2026-05-08 15:29 | 39.48915 | -0.47161 | 204 ft | 4 kts | 300° |
| 2026-05-08 15:29 | 39.48911 | -0.47150 | 204 ft | 0 kts | 276° |
| 2026-05-08 15:31 | 39.48911 | -0.47156 | 203 ft | 2 kts | 277° |
| 2026-05-08 15:31 | 39.48913 | -0.47178 | 200 ft | 3 kts | 276° |
| 2026-05-08 15:31 | 39.48916 | -0.47222 | 191 ft | 6 kts | 273° |
| 2026-05-08 15:32 | 39.48926 | -0.47287 | 198 ft | 8 kts | 292° |
| 2026-05-08 15:32 | 39.48954 | -0.47362 | 200 ft | 10 kts | 297° |
| 2026-05-08 15:32 | 39.48986 | -0.47446 | 202 ft | 11 kts | 296° |
| 2026-05-08 15:32 | 39.49022 | -0.47540 | 208 ft | 13 kts | 296° |
| 2026-05-08 15:33 | 39.49059 | -0.47659 | 203 ft | 15 kts | 272° |
| 2026-05-08 15:33 | 39.49035 | -0.47799 | 208 ft | 17 kts | 256° |
| 2026-05-08 15:33 | 39.49053 | -0.47953 | 211 ft | 19 kts | 296° |
| 2026-05-08 15:33 | 39.49110 | -0.48103 | 212 ft | 18 kts | 296° |
| 2026-05-08 15:34 | 39.49157 | -0.48228 | 209 ft | 13 kts | 296° |
| 2026-05-08 15:34 | 39.49192 | -0.48320 | 211 ft | 10 kts | 296° |
| 2026-05-08 15:34 | 39.49220 | -0.48392 | 213 ft | 9 kts | 296° |
| 2026-05-08 15:34 | 39.49249 | -0.48466 | 215 ft | 10 kts | 296° |
| 2026-05-08 15:35 | 39.49281 | -0.48552 | 217 ft | 12 kts | 296° |
| 2026-05-08 15:35 | 39.49321 | -0.48658 | 219 ft | 15 kts | 296° |
| 2026-05-08 15:35 | 39.49374 | -0.48796 | 222 ft | 18 kts | 296° |
| 2026-05-08 15:35 | 39.49435 | -0.48957 | 222 ft | 22 kts | 296° |
| 2026-05-08 15:36 | 39.49506 | -0.49142 | 223 ft | 22 kts | 296° |
| 2026-05-08 15:36 | 39.49566 | -0.49300 | 226 ft | 18 kts | 296° |
| 2026-05-08 15:36 | 39.49617 | -0.49433 | 230 ft | 15 kts | 296° |
| 2026-05-08 15:36 | 39.49657 | -0.49538 | 234 ft | 12 kts | 296° |
| 2026-05-08 15:37 | 39.49696 | -0.49642 | 235 ft | 15 kts | 296° |
| 2026-05-08 15:37 | 39.49749 | -0.49780 | 238 ft | 19 kts | 296° |
| 2026-05-08 15:37 | 39.49795 | -0.49928 | 244 ft | 15 kts | 264° |
| 2026-05-08 15:37 | 39.49727 | -0.49997 | 246 ft | 11 kts | 206° |
| 2026-05-08 15:38 | 39.49667 | -0.50026 | 247 ft | 8 kts | 188° |
| 2026-05-08 15:38 | 39.49622 | -0.49977 | 244 ft | 12 kts | 116° |
| 2026-05-08 15:38 | 39.49526 | -0.49721 | 240 ft | 64 kts | 116° |
| 2026-05-08 15:38 | 39.49232 | -0.48950 | 221 ft | 124 kts | 116° |
| 2026-05-08 15:39 | 39.48778 | -0.47766 | 351 ft | 156 kts | 115° |
| 2026-05-08 15:39 | 39.48289 | -0.46566 | 1084 ft | 151 kts | 116° |
| 2026-05-08 15:39 | 39.47787 | -0.45348 | 1715 ft | 154 kts | 116° |
| 2026-05-08 15:39 | 39.47270 | -0.44112 | 2233 ft | 162 kts | 121° |
| 2026-05-08 15:40 | 39.46567 | -0.42825 | 2468 ft | 187 kts | 126° |
| 2026-05-08 15:40 | 39.45719 | -0.41411 | 2736 ft | 210 kts | 128° |
| 2026-05-08 15:40 | 39.44771 | -0.39865 | 3072 ft | 231 kts | 129° |
| 2026-05-08 15:40 | 39.43741 | -0.38186 | 3613 ft | 243 kts | 129° |
| 2026-05-08 15:41 | 39.42648 | -0.36395 | 4116 ft | 262 kts | 129° |
| 2026-05-08 15:41 | 39.41506 | -0.34513 | 4904 ft | 269 kts | 130° |
| 2026-05-08 15:41 | 39.40326 | -0.32607 | 5718 ft | 274 kts | 135° |
| 2026-05-08 15:41 | 39.38747 | -0.31267 | 6491 ft | 273 kts | 165° |
| 2026-05-08 15:42 | 39.36870 | -0.31101 | 7246 ft | 272 kts | 195° |
| 2026-05-08 15:42 | 39.35180 | -0.32124 | 8011 ft | 272 kts | 223° |
| 2026-05-08 15:42 | 39.33946 | -0.33956 | 8839 ft | 271 kts | 235° |
| 2026-05-08 15:42 | 39.32885 | -0.35973 | 9630 ft | 275 kts | 240° |
| 2026-05-08 15:43 | 39.31973 | -0.38147 | 10291 ft | 275 kts | 246° |
| 2026-05-08 15:43 | 39.31240 | -0.40438 | 11012 ft | 281 kts | 251° |
| 2026-05-08 15:43 | 39.30667 | -0.42955 | 11224 ft | 304 kts | 257° |
| 2026-05-08 15:43 | 39.30322 | -0.45714 | 11641 ft | 317 kts | 264° |
| 2026-05-08 15:44 | 39.30231 | -0.48536 | 12318 ft | 321 kts | 269° |
| 2026-05-08 15:44 | 39.30400 | -0.51468 | 13066 ft | 325 kts | 275° |
| 2026-05-08 15:44 | 39.30840 | -0.54348 | 13814 ft | 329 kts | 281° |
| 2026-05-08 15:44 | 39.31552 | -0.57137 | 14464 ft | 334 kts | 288° |
| 2026-05-08 15:45 | 39.32560 | -0.59859 | 15081 ft | 340 kts | 295° |
| 2026-05-08 15:45 | 39.33857 | -0.62436 | 15717 ft | 346 kts | 302° |
| 2026-05-08 15:45 | 39.35471 | -0.64783 | 16363 ft | 354 kts | 311° |
| 2026-05-08 15:45 | 39.37413 | -0.66798 | 16986 ft | 361 kts | 317° |
| 2026-05-08 15:46 | 39.39438 | -0.68726 | 17605 ft | 363 kts | 317° |
| 2026-05-08 15:46 | 39.41482 | -0.70664 | 18206 ft | 366 kts | 317° |
| 2026-05-08 15:46 | 39.43548 | -0.72622 | 18732 ft | 369 kts | 317° |
| 2026-05-08 15:46 | 39.45626 | -0.74591 | 19258 ft | 371 kts | 317° |
| 2026-05-08 15:47 | 39.47714 | -0.76574 | 19786 ft | 374 kts | 316° |
| 2026-05-08 15:47 | 39.49820 | -0.78583 | 20263 ft | 378 kts | 316° |
| 2026-05-08 15:47 | 39.51942 | -0.80615 | 20771 ft | 381 kts | 316° |
| 2026-05-08 15:47 | 39.54077 | -0.82662 | 21319 ft | 384 kts | 316° |
| 2026-05-08 15:48 | 39.58401 | -0.86806 | 22338 ft | 389 kts | 316° |
| 2026-05-08 15:48 | 39.60587 | -0.88899 | 22836 ft | 391 kts | 316° |
| 2026-05-08 15:48 | 39.62782 | -0.91005 | 23318 ft | 394 kts | 316° |
| 2026-05-08 15:49 | 39.64993 | -0.93127 | 23784 ft | 396 kts | 316° |
| 2026-05-08 15:49 | 39.67214 | -0.95262 | 24145 ft | 398 kts | 316° |
| 2026-05-08 15:49 | 39.69375 | -0.97492 | 24536 ft | 394 kts | 309° |
| 2026-05-08 15:49 | 39.71203 | -1.00099 | 24923 ft | 388 kts | 300° |
| 2026-05-08 15:50 | 39.72647 | -1.03025 | 25312 ft | 383 kts | 292° |
| 2026-05-08 15:50 | 39.73954 | -1.06048 | 25722 ft | 385 kts | 292° |
| 2026-05-08 15:50 | 39.75273 | -1.09089 | 26116 ft | 386 kts | 293° |
| 2026-05-08 15:50 | 39.76596 | -1.12130 | 26514 ft | 388 kts | 293° |
| 2026-05-08 15:51 | 39.77932 | -1.15190 | 26902 ft | 390 kts | 292° |
| 2026-05-08 15:51 | 39.79271 | -1.18260 | 27290 ft | 391 kts | 292° |
| 2026-05-08 15:51 | 39.80611 | -1.21340 | 27679 ft | 392 kts | 292° |
| 2026-05-08 15:51 | 39.81957 | -1.24441 | 28029 ft | 394 kts | 292° |
| 2026-05-08 15:52 | 39.83307 | -1.27555 | 28364 ft | 396 kts | 292° |
| 2026-05-08 15:52 | 39.84661 | -1.30680 | 28674 ft | 397 kts | 292° |
| 2026-05-08 15:52 | 39.86019 | -1.33822 | 29003 ft | 399 kts | 292° |
| 2026-05-08 15:52 | 39.87364 | -1.36939 | 29319 ft | 401 kts | 292° |
| 2026-05-08 15:53 | 39.88727 | -1.40106 | 29625 ft | 402 kts | 292° |
| 2026-05-08 15:53 | 39.90098 | -1.43289 | 29932 ft | 404 kts | 292° |
| 2026-05-08 15:53 | 39.91476 | -1.46487 | 30199 ft | 405 kts | 292° |
| 2026-05-08 15:53 | 39.92859 | -1.49695 | 30441 ft | 407 kts | 292° |
| 2026-05-08 15:54 | 39.94265 | -1.52960 | 30720 ft | 408 kts | 292° |
| 2026-05-08 15:54 | 39.95629 | -1.56133 | 30942 ft | 408 kts | 292° |
| 2026-05-08 15:54 | 39.97016 | -1.59371 | 31198 ft | 408 kts | 292° |
| 2026-05-08 15:54 | 39.98396 | -1.62590 | 31509 ft | 406 kts | 292° |
| 2026-05-08 15:55 | 39.99771 | -1.65797 | 31831 ft | 405 kts | 292° |
| 2026-05-08 15:55 | 40.02507 | -1.72190 | 32479 ft | 403 kts | 292° |
| 2026-05-08 15:55 | 40.03874 | -1.75398 | 32700 ft | 404 kts | 292° |
| 2026-05-08 15:56 | 40.05238 | -1.78603 | 32973 ft | 404 kts | 292° |
| 2026-05-08 15:56 | 40.06596 | -1.81802 | 33268 ft | 403 kts | 292° |
| 2026-05-08 15:56 | 40.07957 | -1.85000 | 33555 ft | 402 kts | 292° |
| 2026-05-08 15:56 | 40.09318 | -1.88195 | 33849 ft | 402 kts | 292° |
| 2026-05-08 15:57 | 40.10677 | -1.91391 | 33973 ft | 404 kts | 291° |
| 2026-05-08 15:57 | 40.12043 | -1.94623 | 33956 ft | 410 kts | 291° |
| 2026-05-08 15:57 | 40.14820 | -2.01210 | 33947 ft | 417 kts | 292° |
| 2026-05-08 15:58 | 40.17651 | -2.07883 | 33948 ft | 421 kts | 292° |
| 2026-05-08 15:58 | 40.20506 | -2.14560 | 33946 ft | 421 kts | 292° |
| 2026-05-08 15:59 | 40.23349 | -2.21258 | 33960 ft | 421 kts | 292° |
| 2026-05-08 15:59 | 40.26179 | -2.28014 | 33935 ft | 425 kts | 292° |
| 2026-05-08 16:00 | 40.29016 | -2.34811 | 33944 ft | 426 kts | 292° |
| 2026-05-08 16:00 | 40.31861 | -2.41632 | 33937 ft | 427 kts | 292° |
| 2026-05-08 16:01 | 40.34703 | -2.48458 | 33936 ft | 427 kts | 292° |
| 2026-05-08 16:01 | 40.37743 | -2.55177 | 33933 ft | 435 kts | 302° |
| 2026-05-08 16:02 | 40.41822 | -2.61136 | 33930 ft | 440 kts | 305° |
| 2026-05-08 16:02 | 40.45950 | -2.67071 | 33951 ft | 440 kts | 305° |
| 2026-05-08 16:03 | 40.50072 | -2.73033 | 33944 ft | 441 kts | 305° |
| 2026-05-08 16:03 | 40.54188 | -2.79014 | 33938 ft | 441 kts | 305° |
| 2026-05-08 16:04 | 40.58279 | -2.84956 | 33935 ft | 441 kts | 305° |
| 2026-05-08 16:04 | 40.62399 | -2.90955 | 33935 ft | 442 kts | 305° |
| 2026-05-08 16:05 | 40.66510 | -2.96959 | 33931 ft | 441 kts | 305° |
| 2026-05-08 16:05 | 40.70616 | -3.02972 | 33935 ft | 442 kts | 305° |
| 2026-05-08 16:06 | 40.74731 | -3.08994 | 33952 ft | 442 kts | 305° |
| 2026-05-08 16:06 | 40.78840 | -3.15035 | 33941 ft | 442 kts | 305° |
| 2026-05-08 16:07 | 40.83376 | -3.20598 | 33929 ft | 458 kts | 322° |
| 2026-05-08 16:07 | 40.86305 | -3.22395 | 33932 ft | 472 kts | 335° |
| 2026-05-08 16:07 | 40.89568 | -3.23240 | 33933 ft | 486 kts | 350° |
| 2026-05-08 16:08 | 40.92975 | -3.23010 | 33929 ft | 497 kts | 4° |
| 2026-05-08 16:08 | 40.96384 | -3.22251 | 33923 ft | 498 kts | 4° |
| 2026-05-08 16:08 | 41.03229 | -3.20690 | 33915 ft | 499 kts | 4° |
| 2026-05-08 16:09 | 41.08934 | -3.19393 | 33943 ft | 500 kts | 4° |
| 2026-05-08 16:09 | 41.15795 | -3.17849 | 33941 ft | 501 kts | 4° |
| 2026-05-08 16:10 | 41.22665 | -3.16309 | 33937 ft | 501 kts | 4° |
| 2026-05-08 16:10 | 41.29534 | -3.14753 | 33935 ft | 501 kts | 4° |
| 2026-05-08 16:11 | 41.36397 | -3.13193 | 33942 ft | 500 kts | 4° |
| 2026-05-08 16:11 | 41.43253 | -3.11648 | 33937 ft | 500 kts | 4° |
| 2026-05-08 16:12 | 41.50112 | -3.10088 | 33926 ft | 500 kts | 5° |
| 2026-05-08 16:12 | 41.56954 | -3.08529 | 33943 ft | 499 kts | 5° |
| 2026-05-08 16:13 | 41.63786 | -3.06980 | 33936 ft | 498 kts | 5° |
| 2026-05-08 16:13 | 41.70616 | -3.05428 | 33924 ft | 497 kts | 5° |
| 2026-05-08 16:14 | 41.74016 | -3.04655 | 33723 ft | 492 kts | 5° |
| 2026-05-08 16:14 | 41.77356 | -3.03887 | 33233 ft | 483 kts | 5° |
| 2026-05-08 16:14 | 41.80637 | -3.03128 | 32393 ft | 473 kts | 5° |
| 2026-05-08 16:14 | 41.83815 | -3.02387 | 31907 ft | 456 kts | 5° |
| 2026-05-08 16:15 | 41.86892 | -3.01666 | 31395 ft | 441 kts | 4° |
| 2026-05-08 16:15 | 41.89868 | -3.00974 | 30898 ft | 428 kts | 4° |
| 2026-05-08 16:15 | 41.92766 | -3.00303 | 30427 ft | 416 kts | 3° |
| 2026-05-08 16:15 | 41.95577 | -2.99655 | 29981 ft | 406 kts | 3° |
| 2026-05-08 16:16 | 41.98364 | -2.99020 | 29466 ft | 405 kts | 2° |
| 2026-05-08 16:16 | 42.01136 | -2.98387 | 29017 ft | 403 kts | 3° |
| 2026-05-08 16:16 | 42.03891 | -2.97752 | 28592 ft | 400 kts | 3° |
| 2026-05-08 16:16 | 42.06624 | -2.97120 | 28157 ft | 397 kts | 3° |
| 2026-05-08 16:17 | 42.09301 | -2.96499 | 27749 ft | 394 kts | 3° |
| 2026-05-08 16:17 | 42.11994 | -2.95870 | 27337 ft | 392 kts | 3° |
| 2026-05-08 16:17 | 42.14670 | -2.95246 | 26926 ft | 389 kts | 3° |
| 2026-05-08 16:17 | 42.17321 | -2.94628 | 26543 ft | 385 kts | 4° |
| 2026-05-08 16:18 | 42.19950 | -2.94016 | 26138 ft | 381 kts | 4° |
| 2026-05-08 16:18 | 42.22559 | -2.93409 | 25733 ft | 380 kts | 4° |
| 2026-05-08 16:18 | 42.25155 | -2.92806 | 25336 ft | 378 kts | 4° |
| 2026-05-08 16:18 | 42.27745 | -2.92202 | 24918 ft | 376 kts | 4° |
| 2026-05-08 16:19 | 42.30318 | -2.91600 | 24491 ft | 374 kts | 4° |
| 2026-05-08 16:19 | 42.32874 | -2.91000 | 24074 ft | 372 kts | 4° |
| 2026-05-08 16:19 | 42.35423 | -2.90401 | 23640 ft | 372 kts | 5° |
| 2026-05-08 16:19 | 42.37976 | -2.89800 | 23158 ft | 371 kts | 7° |
| 2026-05-08 16:20 | 42.40513 | -2.89203 | 22704 ft | 369 kts | 8° |
| 2026-05-08 16:20 | 42.43033 | -2.88614 | 22289 ft | 366 kts | 8° |
| 2026-05-08 16:20 | 42.45540 | -2.88087 | 21854 ft | 363 kts | 3° |
| 2026-05-08 16:20 | 42.48053 | -2.87916 | 21435 ft | 360 kts | 0° |
| 2026-05-08 16:21 | 42.50553 | -2.87782 | 21017 ft | 358 kts | 0° |
| 2026-05-08 16:21 | 42.53038 | -2.87654 | 20602 ft | 357 kts | 0° |
| 2026-05-08 16:21 | 42.55515 | -2.87525 | 20187 ft | 355 kts | 0° |
| 2026-05-08 16:21 | 42.57984 | -2.87393 | 19771 ft | 354 kts | 1° |
| 2026-05-08 16:22 | 42.60440 | -2.87259 | 19363 ft | 354 kts | 1° |
| 2026-05-08 16:22 | 42.62907 | -2.87125 | 18758 ft | 359 kts | 1° |
| 2026-05-08 16:22 | 42.65423 | -2.86989 | 18250 ft | 362 kts | 1° |
| 2026-05-08 16:22 | 42.67946 | -2.86853 | 17761 ft | 362 kts | 1° |
| 2026-05-08 16:23 | 42.70460 | -2.86738 | 17344 ft | 360 kts | 358° |
| 2026-05-08 16:23 | 42.72925 | -2.87131 | 16947 ft | 356 kts | 345° |
| 2026-05-08 16:23 | 42.75250 | -2.88206 | 16541 ft | 351 kts | 333° |
| 2026-05-08 16:23 | 42.77382 | -2.89796 | 16148 ft | 349 kts | 328° |
| 2026-05-08 16:24 | 42.79484 | -2.91428 | 15755 ft | 347 kts | 328° |
| 2026-05-08 16:24 | 42.81582 | -2.93049 | 15364 ft | 346 kts | 328° |
| 2026-05-08 16:24 | 42.83673 | -2.94660 | 15002 ft | 344 kts | 328° |
| 2026-05-08 16:24 | 42.85738 | -2.96251 | 14653 ft | 342 kts | 328° |
| 2026-05-08 16:25 | 42.87806 | -2.97850 | 14261 ft | 341 kts | 328° |
| 2026-05-08 16:25 | 42.89868 | -2.99452 | 13877 ft | 340 kts | 328° |
| 2026-05-08 16:25 | 42.91921 | -3.01050 | 13472 ft | 339 kts | 328° |
| 2026-05-08 16:25 | 42.93966 | -3.02641 | 13077 ft | 337 kts | 328° |
| 2026-05-08 16:26 | 42.95994 | -3.04221 | 12686 ft | 334 kts | 328° |
| 2026-05-08 16:26 | 42.98004 | -3.05788 | 12322 ft | 332 kts | 327° |
| 2026-05-08 16:26 | 43.00013 | -3.07351 | 11906 ft | 331 kts | 327° |
| 2026-05-08 16:26 | 43.02002 | -3.08898 | 11522 ft | 329 kts | 327° |
| 2026-05-08 16:27 | 43.03983 | -3.10440 | 11211 ft | 323 kts | 327° |
| 2026-05-08 16:27 | 43.05906 | -3.11929 | 11020 ft | 314 kts | 327° |
| 2026-05-08 16:27 | 43.07792 | -3.13396 | 10582 ft | 310 kts | 327° |
| 2026-05-08 16:27 | 43.09631 | -3.14833 | 10025 ft | 305 kts | 326° |
| 2026-05-08 16:28 | 43.11442 | -3.16251 | 9617 ft | 295 kts | 326° |
| 2026-05-08 16:28 | 43.13196 | -3.17622 | 9232 ft | 284 kts | 326° |
| 2026-05-08 16:28 | 43.14885 | -3.18940 | 8875 ft | 278 kts | 326° |
| 2026-05-08 16:28 | 43.16559 | -3.20250 | 8515 ft | 276 kts | 326° |
| 2026-05-08 16:29 | 43.18222 | -3.21559 | 8143 ft | 275 kts | 326° |
| 2026-05-08 16:29 | 43.19880 | -3.22868 | 7760 ft | 273 kts | 327° |
| 2026-05-08 16:29 | 43.21524 | -3.24160 | 7389 ft | 272 kts | 328° |
| 2026-05-08 16:29 | 43.23164 | -3.25449 | 6995 ft | 272 kts | 327° |
| 2026-05-08 16:30 | 43.24810 | -3.26714 | 6605 ft | 272 kts | 332° |
| 2026-05-08 16:30 | 43.26607 | -3.27521 | 6175 ft | 274 kts | 349° |
| 2026-05-08 16:30 | 43.28505 | -3.27810 | 5747 ft | 275 kts | 355° |
| 2026-05-08 16:30 | 43.30416 | -3.27908 | 5322 ft | 275 kts | 359° |
| 2026-05-08 16:31 | 43.32286 | -3.27824 | 4882 ft | 263 kts | 4° |
| 2026-05-08 16:31 | 43.34084 | -3.27566 | 4447 ft | 256 kts | 8° |
| 2026-05-08 16:31 | 43.35798 | -3.27156 | 4333 ft | 247 kts | 12° |
| 2026-05-08 16:31 | 43.37368 | -3.26254 | 4310 ft | 246 kts | 40° |
| 2026-05-08 16:32 | 43.38392 | -3.24447 | 4145 ft | 236 kts | 73° |
| 2026-05-08 16:32 | 43.38691 | -3.22315 | 4023 ft | 222 kts | 88° |
| 2026-05-08 16:32 | 43.38783 | -3.20216 | 3796 ft | 215 kts | 90° |
| 2026-05-08 16:32 | 43.38848 | -3.18212 | 3667 ft | 206 kts | 90° |
| 2026-05-08 16:33 | 43.38905 | -3.16265 | 3568 ft | 203 kts | 93° |
| 2026-05-08 16:33 | 43.38628 | -3.14415 | 3498 ft | 196 kts | 121° |
| 2026-05-08 16:33 | 43.38011 | -3.12734 | 3417 ft | 198 kts | 119° |
| 2026-05-08 16:33 | 43.37413 | -3.11081 | 3225 ft | 188 kts | 120° |
| 2026-05-08 16:34 | 43.36846 | -3.09515 | 2959 ft | 177 kts | 120° |
| 2026-05-08 16:34 | 43.36314 | -3.08053 | 2734 ft | 167 kts | 120° |
| 2026-05-08 16:34 | 43.35803 | -3.06650 | 2514 ft | 162 kts | 121° |
| 2026-05-08 16:34 | 43.35308 | -3.05292 | 2283 ft | 161 kts | 118° |
| 2026-05-08 16:35 | 43.34819 | -3.03949 | 2068 ft | 154 kts | 120° |
| 2026-05-08 16:35 | 43.34343 | -3.02646 | 1852 ft | 152 kts | 118° |
| 2026-05-08 16:35 | 43.33869 | -3.01346 | 1644 ft | 152 kts | 118° |
| 2026-05-08 16:35 | 43.33397 | -3.00055 | 1424 ft | 150 kts | 117° |
| 2026-05-08 16:36 | 43.32929 | -2.98773 | 1205 ft | 150 kts | 117° |
| 2026-05-08 16:36 | 43.32464 | -2.97499 | 1000 ft | 149 kts | 116° |
| 2026-05-08 16:36 | 43.32002 | -2.96236 | 790 ft | 147 kts | 115° |
| 2026-05-08 16:36 | 43.31546 | -2.94989 | 591 ft | 146 kts | 116° |
| 2026-05-08 16:37 | 43.31088 | -2.93748 | 390 ft | 145 kts | 115° |
| 2026-05-08 16:37 | 43.30642 | -2.92513 | 161 ft | 143 kts | 115° |
| 2026-05-08 16:37 | 43.30246 | -2.91427 | 125 ft | 101 kts | 117° |
| 2026-05-08 16:37 | 43.30031 | -2.90830 | 126 ft | 56 kts | 115° |
| 2026-05-08 16:38 | 43.29928 | -2.90433 | 127 ft | 28 kts | 92° |
| 2026-05-08 16:38 | 43.29949 | -2.90231 | 132 ft | 13 kts | 45° |
| 2026-05-08 16:38 | 43.29998 | -2.90250 | 132 ft | 7 kts | 296° |
| 2026-05-08 16:38 | 43.30018 | -2.90301 | 132 ft | 6 kts | 296° |
| 2026-05-08 16:39 | 43.30041 | -2.90364 | 132 ft | 10 kts | 297° |
| 2026-05-08 16:39 | 43.30093 | -2.90426 | 132 ft | 12 kts | 355° |
| 2026-05-08 16:39 | 43.30130 | -2.90513 | 132 ft | 12 kts | 294° |
| 2026-05-08 16:39 | 43.30193 | -2.90545 | 132 ft | 13 kts | 26° |
| 2026-05-08 16:40 | 43.30277 | -2.90550 | 132 ft | 13 kts | 324° |
| 2026-05-08 16:40 | 43.30345 | -2.90622 | 132 ft | 11 kts | 306° |
| 2026-05-08 16:40 | 43.30378 | -2.90708 | 132 ft | 10 kts | 308° |
| 2026-05-08 16:40 | 43.30426 | -2.90699 | 132 ft | 5 kts | 27° |
| 2026-05-08 16:41 | 43.30443 | -2.90686 | 132 ft | 0 kts | 27° |